createdAt,value
2018-10-18T00:02:23.830Z,11.70
2018-10-18T00:07:18.572Z,12.68
2018-10-18T00:12:15.245Z,12.60
2018-10-18T00:17:14.261Z,12.63
2018-10-18T00:22:13.640Z,11.73
2018-10-18T00:27:11.046Z,12.20
2018-10-18T00:32:06.082Z,12.58
2018-10-18T00:47:06.159Z,12.78
2018-10-18T00:52:02.197Z,11.50
2018-10-18T00:56:58.643Z,11.35
2018-10-18T01:01:53.340Z,12.23
2018-10-18T01:06:50.113Z,11.68
2018-10-18T01:11:45.447Z,11.80
2018-10-18T01:16:41.717Z,11.55
2018-10-18T01:21:36.905Z,12.23
2018-10-18T01:26:31.652Z,11.12
2018-10-18T01:31:25.893Z,11.70
2018-10-18T01:36:21.449Z,12.88
2018-10-18T01:41:17.379Z,11.30
2018-10-18T01:46:18.037Z,12.07
2018-10-18T01:51:14.323Z,12.30
2018-10-18T01:56:08.727Z,11.88
2018-10-18T02:01:03.619Z,11.78
2018-10-18T02:05:59.685Z,13.58
2018-10-18T02:10:55.609Z,12.90
2018-10-18T02:15:48.905Z,13.00
2018-10-18T02:20:52.352Z,14.25
2018-10-18T02:25:49.397Z,12.90
2018-10-18T02:30:46.160Z,12.50
2018-10-18T02:35:44.179Z,12.10
2018-10-18T02:40:43.517Z,12.63
2018-10-18T02:45:41.308Z,13.35
2018-10-18T02:50:36.597Z,13.22
2018-10-18T02:55:31.822Z,15.03
2018-10-18T03:00:28.628Z,14.30
2018-10-18T03:10:25.386Z,12.33
2018-10-18T03:15:18.599Z,12.28
2018-10-18T03:20:17.756Z,16.27
2018-10-18T03:25:11.138Z,17.12
2018-10-18T03:30:04.784Z,16.67
2018-10-18T03:34:57.959Z,17.73
2018-10-18T03:39:51.183Z,20.52
2018-10-18T03:44:44.559Z,20.90
2018-10-18T03:49:37.954Z,19.87
2018-10-18T03:54:31.291Z,21.90
2018-10-18T03:59:24.545Z,22.60
2018-10-18T04:04:17.866Z,23.18
2018-10-18T04:09:11.048Z,28.17
2018-10-18T04:14:04.411Z,29.10
2018-10-18T04:18:57.768Z,28.12
2018-10-18T04:23:51.239Z,26.12
2018-10-18T04:28:44.615Z,28.12
2018-10-18T04:33:37.893Z,24.12
2018-10-18T04:38:31.124Z,26.60
2018-10-18T04:43:24.461Z,25.52
2018-10-18T04:48:19.963Z,25.23
2018-10-18T04:53:13.125Z,22.58
2018-10-18T04:58:06.549Z,22.27
2018-10-18T05:02:59.851Z,22.02
2018-10-18T05:07:53.085Z,15.65
2018-10-18T05:12:46.734Z,16.00
2018-10-18T05:17:39.976Z,15.83
2018-10-18T05:22:33.363Z,18.67
2018-10-18T05:27:26.776Z,19.30
2018-10-18T05:32:20.296Z,20.05
2018-10-18T05:37:13.629Z,25.80
2018-10-18T05:42:06.925Z,26.45
2018-10-18T05:47:00.147Z,46.25
2018-10-18T05:51:53.335Z,30.85
2018-10-18T05:56:46.648Z,30.37
2018-10-18T06:01:39.846Z,32.23
2018-10-18T06:06:33.185Z,31.45
2018-10-18T06:11:31.035Z,29.37
2018-10-18T06:16:25.452Z,24.37
2018-10-18T06:21:18.676Z,24.77
2018-10-18T06:26:12.109Z,22.15
2018-10-18T06:31:05.665Z,16.52
2018-10-18T06:35:59.068Z,12.18
2018-10-18T06:40:52.362Z,11.95
2018-10-18T06:45:45.677Z,12.65
2018-10-18T06:50:39.948Z,12.53
2018-10-18T06:55:33.157Z,14.38
2018-10-18T07:00:26.479Z,14.63
2018-10-18T07:05:19.759Z,15.10
2018-10-18T07:10:13.229Z,15.28
2018-10-18T07:15:07.543Z,16.77
2018-10-18T07:20:00.939Z,14.68
2018-10-18T07:24:54.184Z,14.20
2018-10-18T07:29:47.461Z,14.15
2018-10-18T07:34:40.720Z,14.98
2018-10-18T07:39:33.955Z,14.95
2018-10-18T07:44:27.729Z,17.92
2018-10-18T07:49:20.950Z,19.23
2018-10-18T07:54:14.215Z,16.42
2018-10-18T07:59:07.402Z,13.32
2018-10-18T08:04:00.704Z,13.98
2018-10-18T08:08:53.939Z,13.88
2018-10-18T08:13:47.245Z,17.87
2018-10-18T08:18:41.558Z,13.18
2018-10-18T08:23:34.889Z,13.40
2018-10-18T08:28:28.213Z,12.33
2018-10-18T08:33:22.591Z,12.70
2018-10-18T08:38:16.355Z,13.65
2018-10-18T08:43:09.597Z,13.10
2018-10-18T08:48:02.925Z,12.28
2018-10-18T08:52:56.108Z,12.55
2018-10-18T08:57:49.454Z,13.13
2018-10-18T09:02:42.985Z,13.88
2018-10-18T09:07:36.626Z,14.45
2018-10-18T09:12:29.824Z,12.65
2018-10-18T09:17:23.098Z,13.40
2018-10-18T09:22:16.383Z,13.05
2018-10-18T09:27:10.067Z,14.03
2018-10-18T09:32:03.376Z,14.18
2018-10-18T09:36:56.911Z,13.30
2018-10-18T09:41:50.083Z,13.90
2018-10-18T09:46:43.266Z,14.30
2018-10-18T09:51:36.604Z,13.70
2018-10-18T09:56:30.680Z,13.72
2018-10-18T10:01:29.219Z,14.03
2018-10-18T10:06:22.546Z,13.83
2018-10-18T10:11:15.812Z,13.90
2018-10-18T10:16:09.158Z,12.93
2018-10-18T10:21:02.468Z,14.28
2018-10-18T10:25:56.022Z,13.95
2018-10-18T10:30:49.370Z,14.15
2018-10-18T10:35:42.697Z,13.90
2018-10-18T10:40:35.935Z,14.75
2018-10-18T10:45:29.325Z,14.38
2018-10-18T10:50:22.575Z,14.80
2018-10-18T10:55:15.763Z,15.85
2018-10-18T11:00:09.141Z,14.40
2018-10-18T11:05:02.429Z,17.52
2018-10-18T11:09:55.626Z,18.92
2018-10-18T11:14:48.926Z,19.40
2018-10-18T11:19:42.096Z,18.25
2018-10-18T11:24:35.543Z,19.02
2018-10-18T11:29:28.802Z,17.12
2018-10-18T11:34:22.146Z,17.45
2018-10-18T11:39:15.329Z,16.75
2018-10-18T11:44:13.880Z,16.35
2018-10-18T11:49:07.498Z,16.55
2018-10-18T11:54:02.815Z,15.95
2018-10-18T11:58:58.012Z,14.90
2018-10-18T12:03:54.857Z,14.40
2018-10-18T12:08:52.425Z,15.80
2018-10-18T12:13:56.023Z,14.78
2018-10-18T12:18:49.167Z,15.08
2018-10-18T12:23:42.366Z,14.98
2018-10-18T12:28:35.698Z,15.93
2018-10-18T12:33:29.024Z,15.28
2018-10-18T12:38:22.400Z,14.93
2018-10-18T12:43:15.568Z,14.60
2018-10-18T12:48:08.828Z,15.55
2018-10-18T12:53:02.080Z,14.98
2018-10-18T12:57:55.378Z,15.20
2018-10-18T13:02:49.667Z,15.53
2018-10-18T13:07:43.163Z,14.60
2018-10-18T13:12:37.262Z,14.83
2018-10-18T13:17:30.582Z,15.30
2018-10-18T13:22:26.313Z,15.03
2018-10-18T13:27:20.434Z,14.38
2018-10-18T13:32:14.713Z,14.50
2018-10-18T13:37:07.890Z,14.03
2018-10-18T13:42:01.399Z,14.45
2018-10-18T13:46:55.243Z,14.98
2018-10-18T13:51:50.533Z,14.58
